sensor_id;sensor_type;location;lat;lon;timestamp;temperature;humidity
69533;DHT22;56729;52.036;5.332;2022-07-23T00:00:12;15.50;89.60
69533;DHT22;56729;52.036;5.332;2022-07-23T00:01:14;15.50;89.80
69533;DHT22;56729;52.036;5.332;2022-07-23T00:02:22;15.50;90.00
69533;DHT22;56729;52.036;5.332;2022-07-23T00:03:24;15.50;90.10
69533;DHT22;56729;52.036;5.332;2022-07-23T00:04:26;15.50;90.10
69533;DHT22;56729;52.036;5.332;2022-07-23T00:05:28;15.50;90.00
69533;DHT22;56729;52.036;5.332;2022-07-23T00:06:32;15.50;90.00
69533;DHT22;56729;52.036;5.332;2022-07-23T00:07:34;15.40;89.70
69533;DHT22;56729;52.036;5.332;2022-07-23T00:08:36;15.40;89.70
69533;DHT22;56729;52.036;5.332;2022-07-23T00:09:38;15.40;89.80
69533;DHT22;56729;52.036;5.332;2022-07-23T00:10:40;15.30;90.00
69533;DHT22;56729;52.036;5.332;2022-07-23T00:11:42;15.30;90.00
69533;DHT22;56729;52.036;5.332;2022-07-23T00:12:44;15.30;90.00
69533;DHT22;56729;52.036;5.332;2022-07-23T00:13:52;15.20;90.10
69533;DHT22;56729;52.036;5.332;2022-07-23T00:14:56;15.20;90.10
69533;DHT22;56729;52.036;5.332;2022-07-23T00:15:58;15.20;90.20
69533;DHT22;56729;52.036;5.332;2022-07-23T00:17:00;15.20;90.40
69533;DHT22;56729;52.036;5.332;2022-07-23T00:18:02;15.20;90.40
69533;DHT22;56729;52.036;5.332;2022-07-23T00:19:04;15.20;90.50
69533;DHT22;56729;52.036;5.332;2022-07-23T00:20:07;15.20;90.40
69533;DHT22;56729;52.036;5.332;2022-07-23T00:21:11;15.20;90.50
69533;DHT22;56729;52.036;5.332;2022-07-23T00:22:13;15.20;90.60
69533;DHT22;56729;52.036;5.332;2022-07-23T00:23:15;15.20;90.50
69533;DHT22;56729;52.036;5.332;2022-07-23T00:24:17;15.20;90.50
69533;DHT22;56729;52.036;5.332;2022-07-23T00:25:21;15.20;90.50
69533;DHT22;56729;52.036;5.332;2022-07-23T00:26:30;15.20;90.50
69533;DHT22;56729;52.036;5.332;2022-07-23T00:27:32;15.20;90.40
69533;DHT22;56729;52.036;5.332;2022-07-23T00:28:34;15.20;90.40
69533;DHT22;56729;52.036;5.332;2022-07-23T00:29:36;15.20;90.30
69533;DHT22;56729;52.036;5.332;2022-07-23T00:30:38;15.30;90.30
69533;DHT22;56729;52.036;5.332;2022-07-23T00:31:41;15.30;90.30
69533;DHT22;56729;52.036;5.332;2022-07-23T00:32:53;15.20;90.30
69533;DHT22;56729;52.036;5.332;2022-07-23T00:33:59;15.20;90.40
69533;DHT22;56729;52.036;5.332;2022-07-23T00:35:03;15.20;90.40
69533;DHT22;56729;52.036;5.332;2022-07-23T00:36:05;15.20;90.30
69533;DHT22;56729;52.036;5.332;2022-07-23T00:37:07;15.20;90.30
69533;DHT22;56729;52.036;5.332;2022-07-23T00:38:10;15.20;90.30
69533;DHT22;56729;52.036;5.332;2022-07-23T00:39:12;15.20;90.40
69533;DHT22;56729;52.036;5.332;2022-07-23T00:40:14;15.20;90.40
69533;DHT22;56729;52.036;5.332;2022-07-23T00:41:16;15.20;90.40
69533;DHT22;56729;52.036;5.332;2022-07-23T00:42:18;15.20;90.40
69533;DHT22;56729;52.036;5.332;2022-07-23T00:43:21;15.10;90.50
69533;DHT22;56729;52.036;5.332;2022-07-23T00:44:26;15.10;90.50
69533;DHT22;56729;52.036;5.332;2022-07-23T00:45:28;15.10;90.50
69533;DHT22;56729;52.036;5.332;2022-07-23T00:46:30;15.10;90.50
69533;DHT22;56729;52.036;5.332;2022-07-23T00:47:32;15.10;90.60
69533;DHT22;56729;52.036;5.332;2022-07-23T00:48:35;15.10;90.60
69533;DHT22;56729;52.036;5.332;2022-07-23T00:49:37;15.20;90.50
69533;DHT22;56729;52.036;5.332;2022-07-23T00:50:39;15.20;90.50
69533;DHT22;56729;52.036;5.332;2022-07-23T00:51:42;15.20;90.50
69533;DHT22;56729;52.036;5.332;2022-07-23T00:52:44;15.20;90.50
69533;DHT22;56729;52.036;5.332;2022-07-23T00:53:46;15.20;90.50
69533;DHT22;56729;52.036;5.332;2022-07-23T00:54:48;15.20;90.40
69533;DHT22;56729;52.036;5.332;2022-07-23T00:55:51;15.20;90.40
69533;DHT22;56729;52.036;5.332;2022-07-23T00:56:54;15.20;90.40
69533;DHT22;56729;52.036;5.332;2022-07-23T00:57:57;15.20;90.40
69533;DHT22;56729;52.036;5.332;2022-07-23T00:59:00;15.20;90.40
69533;DHT22;56729;52.036;5.332;2022-07-23T01:00:06;15.20;90.40
69533;DHT22;56729;52.036;5.332;2022-07-23T01:01:08;15.20;90.40
69533;DHT22;56729;52.036;5.332;2022-07-23T01:02:11;15.20;90.30
69533;DHT22;56729;52.036;5.332;2022-07-23T01:03:13;15.20;90.40
69533;DHT22;56729;52.036;5.332;2022-07-23T01:04:15;15.20;90.50
69533;DHT22;56729;52.036;5.332;2022-07-23T01:05:18;15.20;90.50
69533;DHT22;56729;52.036;5.332;2022-07-23T01:06:24;15.20;90.50
69533;DHT22;56729;52.036;5.332;2022-07-23T01:07:26;15.20;90.60
69533;DHT22;56729;52.036;5.332;2022-07-23T01:08:29;15.20;90.60
69533;DHT22;56729;52.036;5.332;2022-07-23T01:09:31;15.20;90.50
69533;DHT22;56729;52.036;5.332;2022-07-23T01:10:33;15.20;90.50
69533;DHT22;56729;52.036;5.332;2022-07-23T01:11:37;15.20;90.30
69533;DHT22;56729;52.036;5.332;2022-07-23T01:12:41;15.10;90.30
69533;DHT22;56729;52.036;5.332;2022-07-23T01:13:43;15.10;90.40
69533;DHT22;56729;52.036;5.332;2022-07-23T01:14:45;15.10;90.40
69533;DHT22;56729;52.036;5.332;2022-07-23T01:15:47;15.10;90.50
69533;DHT22;56729;52.036;5.332;2022-07-23T01:16:49;15.10;90.50
69533;DHT22;56729;52.036;5.332;2022-07-23T01:17:51;15.10;90.60
69533;DHT22;56729;52.036;5.332;2022-07-23T01:18:53;15.10;90.60
69533;DHT22;56729;52.036;5.332;2022-07-23T01:19:55;15.10;90.50
69533;DHT22;56729;52.036;5.332;2022-07-23T01:20:57;15.10;90.50
69533;DHT22;56729;52.036;5.332;2022-07-23T01:22:02;15.10;90.40
69533;DHT22;56729;52.036;5.332;2022-07-23T01:23:05;15.10;90.40
69533;DHT22;56729;52.036;5.332;2022-07-23T01:24:08;15.10;90.40
69533;DHT22;56729;52.036;5.332;2022-07-23T01:25:13;15.10;90.40
69533;DHT22;56729;52.036;5.332;2022-07-23T01:26:21;15.10;90.50
69533;DHT22;56729;52.036;5.332;2022-07-23T01:27:37;15.00;90.40
69533;DHT22;56729;52.036;5.332;2022-07-23T01:28:39;15.00;90.40
69533;DHT22;56729;52.036;5.332;2022-07-23T01:29:41;15.00;90.40
69533;DHT22;56729;52.036;5.332;2022-07-23T01:30:53;15.00;90.50
69533;DHT22;56729;52.036;5.332;2022-07-23T01:31:55;15.00;90.40
69533;DHT22;56729;52.036;5.332;2022-07-23T01:32:57;14.90;90.40
69533;DHT22;56729;52.036;5.332;2022-07-23T01:34:00;14.90;90.40
69533;DHT22;56729;52.036;5.332;2022-07-23T01:35:02;14.80;90.50
69533;DHT22;56729;52.036;5.332;2022-07-23T01:36:05;14.80;90.70
69533;DHT22;56729;52.036;5.332;2022-07-23T01:37:07;14.80;90.70
69533;DHT22;56729;52.036;5.332;2022-07-23T01:38:09;14.80;90.80
69533;DHT22;56729;52.036;5.332;2022-07-23T01:39:13;14.80;90.90
69533;DHT22;56729;52.036;5.332;2022-07-23T01:40:17;14.70;90.90
69533;DHT22;56729;52.036;5.332;2022-07-23T01:41:21;14.70;90.90
69533;DHT22;56729;52.036;5.332;2022-07-23T01:42:25;14.70;90.90
69533;DHT22;56729;52.036;5.332;2022-07-23T01:43:27;14.70;90.90
69533;DHT22;56729;52.036;5.332;2022-07-23T01:44:29;14.70;90.90
69533;DHT22;56729;52.036;5.332;2022-07-23T01:45:31;14.70;90.90
69533;DHT22;56729;52.036;5.332;2022-07-23T01:46:33;14.70;91.00
69533;DHT22;56729;52.036;5.332;2022-07-23T01:47:35;14.70;90.90
69533;DHT22;56729;52.036;5.332;2022-07-23T01:48:38;14.70;91.00
69533;DHT22;56729;52.036;5.332;2022-07-23T01:50:00;14.70;91.00
69533;DHT22;56729;52.036;5.332;2022-07-23T01:51:15;14.60;90.90
69533;DHT22;56729;52.036;5.332;2022-07-23T01:52:24;14.60;90.90
69533;DHT22;56729;52.036;5.332;2022-07-23T01:53:26;14.60;91.00
69533;DHT22;56729;52.036;5.332;2022-07-23T01:54:30;14.60;91.00
69533;DHT22;56729;52.036;5.332;2022-07-23T01:55:33;14.60;91.00
69533;DHT22;56729;52.036;5.332;2022-07-23T01:56:38;14.60;91.00
69533;DHT22;56729;52.036;5.332;2022-07-23T01:57:40;14.60;91.10
69533;DHT22;56729;52.036;5.332;2022-07-23T01:58:42;14.60;91.10
69533;DHT22;56729;52.036;5.332;2022-07-23T01:59:44;14.60;91.00
69533;DHT22;56729;52.036;5.332;2022-07-23T02:00:46;14.60;91.00
69533;DHT22;56729;52.036;5.332;2022-07-23T02:01:49;14.60;90.90
69533;DHT22;56729;52.036;5.332;2022-07-23T02:02:52;14.60;90.80
69533;DHT22;56729;52.036;5.332;2022-07-23T02:03:54;14.60;90.80
69533;DHT22;56729;52.036;5.332;2022-07-23T02:04:56;14.60;90.80
69533;DHT22;56729;52.036;5.332;2022-07-23T02:06:00;14.60;90.90
69533;DHT22;56729;52.036;5.332;2022-07-23T02:07:04;14.60;91.20
69533;DHT22;56729;52.036;5.332;2022-07-23T02:08:06;14.60;90.90
69533;DHT22;56729;52.036;5.332;2022-07-23T02:09:10;14.50;90.90
69533;DHT22;56729;52.036;5.332;2022-07-23T02:10:13;14.50;91.00
69533;DHT22;56729;52.036;5.332;2022-07-23T02:11:14;14.50;90.90
69533;DHT22;56729;52.036;5.332;2022-07-23T02:12:16;14.50;91.00
69533;DHT22;56729;52.036;5.332;2022-07-23T02:13:19;14.50;91.00
69533;DHT22;56729;52.036;5.332;2022-07-23T02:14:21;14.50;90.90
69533;DHT22;56729;52.036;5.332;2022-07-23T02:15:23;14.50;91.00
69533;DHT22;56729;52.036;5.332;2022-07-23T02:16:25;14.50;90.90
69533;DHT22;56729;52.036;5.332;2022-07-23T02:17:27;14.50;91.00
69533;DHT22;56729;52.036;5.332;2022-07-23T02:18:29;14.50;90.90
69533;DHT22;56729;52.036;5.332;2022-07-23T02:19:31;14.50;91.00
69533;DHT22;56729;52.036;5.332;2022-07-23T02:20:33;14.50;91.00
69533;DHT22;56729;52.036;5.332;2022-07-23T02:21:35;14.50;90.90
69533;DHT22;56729;52.036;5.332;2022-07-23T02:22:38;14.50;90.90
69533;DHT22;56729;52.036;5.332;2022-07-23T02:23:40;14.40;90.90
69533;DHT22;56729;52.036;5.332;2022-07-23T02:24:42;14.40;90.90
69533;DHT22;56729;52.036;5.332;2022-07-23T02:25:44;14.40;91.00
69533;DHT22;56729;52.036;5.332;2022-07-23T02:26:45;14.40;91.10
69533;DHT22;56729;52.036;5.332;2022-07-23T02:27:48;14.40;91.10
69533;DHT22;56729;52.036;5.332;2022-07-23T02:28:50;14.30;91.00
69533;DHT22;56729;52.036;5.332;2022-07-23T02:29:54;14.30;91.00
69533;DHT22;56729;52.036;5.332;2022-07-23T02:30:56;14.30;91.10
69533;DHT22;56729;52.036;5.332;2022-07-23T02:31:58;14.30;91.10
69533;DHT22;56729;52.036;5.332;2022-07-23T02:33:00;14.30;91.10
69533;DHT22;56729;52.036;5.332;2022-07-23T02:34:02;14.30;91.20
69533;DHT22;56729;52.036;5.332;2022-07-23T02:35:05;14.30;91.10
69533;DHT22;56729;52.036;5.332;2022-07-23T02:36:08;14.30;91.20
69533;DHT22;56729;52.036;5.332;2022-07-23T02:37:10;14.30;91.20
69533;DHT22;56729;52.036;5.332;2022-07-23T02:38:12;14.20;91.30
69533;DHT22;56729;52.036;5.332;2022-07-23T02:39:14;14.20;91.20
69533;DHT22;56729;52.036;5.332;2022-07-23T02:40:16;14.20;91.30
69533;DHT22;56729;52.036;5.332;2022-07-23T02:41:19;14.20;91.30
69533;DHT22;56729;52.036;5.332;2022-07-23T02:42:21;14.20;91.30
69533;DHT22;56729;52.036;5.332;2022-07-23T02:43:23;14.20;91.30
69533;DHT22;56729;52.036;5.332;2022-07-23T02:44:25;14.20;91.30
69533;DHT22;56729;52.036;5.332;2022-07-23T02:45:28;14.20;91.40
69533;DHT22;56729;52.036;5.332;2022-07-23T02:46:30;14.20;91.30
69533;DHT22;56729;52.036;5.332;2022-07-23T02:47:33;14.20;91.40
69533;DHT22;56729;52.036;5.332;2022-07-23T02:48:35;14.20;91.30
69533;DHT22;56729;52.036;5.332;2022-07-23T02:49:37;14.20;91.30
69533;DHT22;56729;52.036;5.332;2022-07-23T02:50:40;14.10;91.30
69533;DHT22;56729;52.036;5.332;2022-07-23T02:51:42;14.20;91.30
69533;DHT22;56729;52.036;5.332;2022-07-23T02:52:45;14.20;91.30
69533;DHT22;56729;52.036;5.332;2022-07-23T02:53:47;14.10;91.30
69533;DHT22;56729;52.036;5.332;2022-07-23T02:54:49;14.10;91.30
69533;DHT22;56729;52.036;5.332;2022-07-23T02:55:51;14.10;91.20
69533;DHT22;56729;52.036;5.332;2022-07-23T02:56:55;14.10;91.30
69533;DHT22;56729;52.036;5.332;2022-07-23T02:57:57;14.10;91.30
69533;DHT22;56729;52.036;5.332;2022-07-23T02:58:59;14.10;91.40
69533;DHT22;56729;52.036;5.332;2022-07-23T03:00:06;14.10;91.40
69533;DHT22;56729;52.036;5.332;2022-07-23T03:01:09;14.10;91.40
69533;DHT22;56729;52.036;5.332;2022-07-23T03:02:11;14.10;91.40
69533;DHT22;56729;52.036;5.332;2022-07-23T03:03:13;14.10;91.40
69533;DHT22;56729;52.036;5.332;2022-07-23T03:04:16;14.10;91.40
69533;DHT22;56729;52.036;5.332;2022-07-23T03:05:18;14.10;91.90
69533;DHT22;56729;52.036;5.332;2022-07-23T03:06:20;14.10;91.40
69533;DHT22;56729;52.036;5.332;2022-07-23T03:07:22;14.10;91.40
69533;DHT22;56729;52.036;5.332;2022-07-23T03:08:24;14.10;91.40
69533;DHT22;56729;52.036;5.332;2022-07-23T03:09:27;14.00;91.40
69533;DHT22;56729;52.036;5.332;2022-07-23T03:10:29;14.00;91.30
69533;DHT22;56729;52.036;5.332;2022-07-23T03:11:31;14.00;91.20
69533;DHT22;56729;52.036;5.332;2022-07-23T03:12:33;14.00;91.20
69533;DHT22;56729;52.036;5.332;2022-07-23T03:13:38;14.00;91.20
69533;DHT22;56729;52.036;5.332;2022-07-23T03:14:40;14.00;91.20
69533;DHT22;56729;52.036;5.332;2022-07-23T03:15:43;13.90;91.30
69533;DHT22;56729;52.036;5.332;2022-07-23T03:16:45;13.90;91.30
69533;DHT22;56729;52.036;5.332;2022-07-23T03:17:47;13.90;91.30
69533;DHT22;56729;52.036;5.332;2022-07-23T03:18:49;13.90;91.30
69533;DHT22;56729;52.036;5.332;2022-07-23T03:19:51;13.90;91.40
69533;DHT22;56729;52.036;5.332;2022-07-23T03:20:53;13.90;91.30
69533;DHT22;56729;52.036;5.332;2022-07-23T03:21:56;13.90;91.30
69533;DHT22;56729;52.036;5.332;2022-07-23T03:22:57;13.80;91.50
69533;DHT22;56729;52.036;5.332;2022-07-23T03:24:01;13.80;91.50
69533;DHT22;56729;52.036;5.332;2022-07-23T03:25:04;13.80;91.50
69533;DHT22;56729;52.036;5.332;2022-07-23T03:26:09;13.80;91.40
69533;DHT22;56729;52.036;5.332;2022-07-23T03:27:11;13.80;91.50
69533;DHT22;56729;52.036;5.332;2022-07-23T03:28:13;13.80;91.50
69533;DHT22;56729;52.036;5.332;2022-07-23T03:29:15;13.80;91.50
69533;DHT22;56729;52.036;5.332;2022-07-23T03:30:17;13.80;91.50
69533;DHT22;56729;52.036;5.332;2022-07-23T03:31:19;13.80;91.50
69533;DHT22;56729;52.036;5.332;2022-07-23T03:32:22;13.80;91.50
69533;DHT22;56729;52.036;5.332;2022-07-23T03:33:24;13.80;91.60
69533;DHT22;56729;52.036;5.332;2022-07-23T03:34:27;13.80;91.50
69533;DHT22;56729;52.036;5.332;2022-07-23T03:35:29;13.80;91.40
69533;DHT22;56729;52.036;5.332;2022-07-23T03:36:48;13.70;91.40
69533;DHT22;56729;52.036;5.332;2022-07-23T03:37:50;13.80;91.40
69533;DHT22;56729;52.036;5.332;2022-07-23T03:38:53;13.70;91.40
69533;DHT22;56729;52.036;5.332;2022-07-23T03:39:55;13.70;91.30
69533;DHT22;56729;52.036;5.332;2022-07-23T03:40:57;13.70;91.40
69533;DHT22;56729;52.036;5.332;2022-07-23T03:41:59;13.70;91.50
69533;DHT22;56729;52.036;5.332;2022-07-23T03:43:02;13.70;91.50
69533;DHT22;56729;52.036;5.332;2022-07-23T03:44:04;13.60;91.50
69533;DHT22;56729;52.036;5.332;2022-07-23T03:45:06;13.60;91.50
69533;DHT22;56729;52.036;5.332;2022-07-23T03:46:08;13.60;91.50
69533;DHT22;56729;52.036;5.332;2022-07-23T03:47:12;13.60;91.40
69533;DHT22;56729;52.036;5.332;2022-07-23T03:48:15;13.60;91.40
69533;DHT22;56729;52.036;5.332;2022-07-23T03:49:19;13.50;91.50
69533;DHT22;56729;52.036;5.332;2022-07-23T03:50:23;13.50;91.50
69533;DHT22;56729;52.036;5.332;2022-07-23T03:51:26;13.50;91.50
69533;DHT22;56729;52.036;5.332;2022-07-23T03:52:28;13.50;91.50
69533;DHT22;56729;52.036;5.332;2022-07-23T03:53:30;13.40;91.50
69533;DHT22;56729;52.036;5.332;2022-07-23T03:54:32;13.40;91.60
69533;DHT22;56729;52.036;5.332;2022-07-23T03:55:36;13.30;91.70
69533;DHT22;56729;52.036;5.332;2022-07-23T03:56:38;13.30;91.80
69533;DHT22;56729;52.036;5.332;2022-07-23T03:57:40;13.30;91.80
69533;DHT22;56729;52.036;5.332;2022-07-23T03:58:42;13.20;91.70
69533;DHT22;56729;52.036;5.332;2022-07-23T03:59:44;13.20;91.70
69533;DHT22;56729;52.036;5.332;2022-07-23T04:00:46;13.20;91.70
69533;DHT22;56729;52.036;5.332;2022-07-23T04:01:49;13.20;91.70
69533;DHT22;56729;52.036;5.332;2022-07-23T04:02:51;13.10;91.80
69533;DHT22;56729;52.036;5.332;2022-07-23T04:03:53;13.10;92.00
69533;DHT22;56729;52.036;5.332;2022-07-23T04:04:55;13.10;92.10
69533;DHT22;56729;52.036;5.332;2022-07-23T04:05:58;13.10;92.10
69533;DHT22;56729;52.036;5.332;2022-07-23T04:07:02;13.10;92.20
69533;DHT22;56729;52.036;5.332;2022-07-23T04:08:06;13.10;92.20
69533;DHT22;56729;52.036;5.332;2022-07-23T04:09:12;13.10;92.20
69533;DHT22;56729;52.036;5.332;2022-07-23T04:10:14;13.10;92.10
69533;DHT22;56729;52.036;5.332;2022-07-23T04:11:16;13.10;92.10
69533;DHT22;56729;52.036;5.332;2022-07-23T04:12:18;13.20;92.20
69533;DHT22;56729;52.036;5.332;2022-07-23T04:13:20;13.10;92.10
69533;DHT22;56729;52.036;5.332;2022-07-23T04:14:22;13.20;92.10
69533;DHT22;56729;52.036;5.332;2022-07-23T04:15:24;13.20;92.10
69533;DHT22;56729;52.036;5.332;2022-07-23T04:16:26;13.20;92.10
69533;DHT22;56729;52.036;5.332;2022-07-23T04:17:28;13.20;92.10
69533;DHT22;56729;52.036;5.332;2022-07-23T04:18:30;13.20;92.10
69533;DHT22;56729;52.036;5.332;2022-07-23T04:19:41;13.20;92.20
69533;DHT22;56729;52.036;5.332;2022-07-23T04:20:46;13.20;92.10
69533;DHT22;56729;52.036;5.332;2022-07-23T04:21:47;13.20;92.10
69533;DHT22;56729;52.036;5.332;2022-07-23T04:22:49;13.30;92.00
69533;DHT22;56729;52.036;5.332;2022-07-23T04:23:52;13.30;92.10
69533;DHT22;56729;52.036;5.332;2022-07-23T04:24:54;13.30;92.00
69533;DHT22;56729;52.036;5.332;2022-07-23T04:25:56;13.30;92.00
69533;DHT22;56729;52.036;5.332;2022-07-23T04:27:00;13.30;91.90
69533;DHT22;56729;52.036;5.332;2022-07-23T04:28:02;13.30;92.50
69533;DHT22;56729;52.036;5.332;2022-07-23T04:29:04;13.30;92.00
69533;DHT22;56729;52.036;5.332;2022-07-23T04:30:07;13.30;92.00
69533;DHT22;56729;52.036;5.332;2022-07-23T04:31:10;13.30;91.90
69533;DHT22;56729;52.036;5.332;2022-07-23T04:32:13;13.30;91.90
69533;DHT22;56729;52.036;5.332;2022-07-23T04:33:15;13.30;92.00
69533;DHT22;56729;52.036;5.332;2022-07-23T04:34:18;13.30;92.00
69533;DHT22;56729;52.036;5.332;2022-07-23T04:35:21;13.30;92.00
69533;DHT22;56729;52.036;5.332;2022-07-23T04:36:26;13.30;92.00
69533;DHT22;56729;52.036;5.332;2022-07-23T04:37:27;13.30;92.00
69533;DHT22;56729;52.036;5.332;2022-07-23T04:38:31;13.30;92.00
69533;DHT22;56729;52.036;5.332;2022-07-23T04:39:36;13.30;92.00
69533;DHT22;56729;52.036;5.332;2022-07-23T04:40:38;13.30;92.00
69533;DHT22;56729;52.036;5.332;2022-07-23T04:41:40;13.30;92.10
69533;DHT22;56729;52.036;5.332;2022-07-23T04:42:42;13.40;92.20
69533;DHT22;56729;52.036;5.332;2022-07-23T04:43:44;13.40;92.20
69533;DHT22;56729;52.036;5.332;2022-07-23T04:44:48;13.40;92.20
69533;DHT22;56729;52.036;5.332;2022-07-23T04:45:50;13.40;92.20
69533;DHT22;56729;52.036;5.332;2022-07-23T04:46:53;13.40;92.20
69533;DHT22;56729;52.036;5.332;2022-07-23T04:47:57;13.40;92.10
69533;DHT22;56729;52.036;5.332;2022-07-23T04:49:00;13.40;92.20
69533;DHT22;56729;52.036;5.332;2022-07-23T04:50:02;13.40;92.10
69533;DHT22;56729;52.036;5.332;2022-07-23T04:51:05;13.40;92.00
69533;DHT22;56729;52.036;5.332;2022-07-23T04:52:06;13.40;92.00
69533;DHT22;56729;52.036;5.332;2022-07-23T04:53:09;13.40;92.00
69533;DHT22;56729;52.036;5.332;2022-07-23T04:54:11;13.40;91.90
69533;DHT22;56729;52.036;5.332;2022-07-23T04:55:13;13.40;91.90
69533;DHT22;56729;52.036;5.332;2022-07-23T04:56:15;13.50;92.00
69533;DHT22;56729;52.036;5.332;2022-07-23T04:57:17;13.40;92.00
69533;DHT22;56729;52.036;5.332;2022-07-23T04:58:19;13.40;92.00
69533;DHT22;56729;52.036;5.332;2022-07-23T04:59:22;13.40;92.00
69533;DHT22;56729;52.036;5.332;2022-07-23T05:00:30;13.50;92.10
69533;DHT22;56729;52.036;5.332;2022-07-23T05:01:32;13.50;92.10
69533;DHT22;56729;52.036;5.332;2022-07-23T05:02:34;13.50;92.10
69533;DHT22;56729;52.036;5.332;2022-07-23T05:03:37;13.40;92.10
69533;DHT22;56729;52.036;5.332;2022-07-23T05:04:39;13.50;92.20
69533;DHT22;56729;52.036;5.332;2022-07-23T05:05:42;13.50;92.20
69533;DHT22;56729;52.036;5.332;2022-07-23T05:06:48;13.50;92.20
69533;DHT22;56729;52.036;5.332;2022-07-23T05:07:50;13.50;92.20
69533;DHT22;56729;52.036;5.332;2022-07-23T05:08:52;13.50;92.20
69533;DHT22;56729;52.036;5.332;2022-07-23T05:09:54;13.50;92.20
69533;DHT22;56729;52.036;5.332;2022-07-23T05:10:56;13.50;92.20
69533;DHT22;56729;52.036;5.332;2022-07-23T05:11:58;13.60;92.30
69533;DHT22;56729;52.036;5.332;2022-07-23T05:13:04;13.60;92.30
69533;DHT22;56729;52.036;5.332;2022-07-23T05:14:07;13.60;92.30
69533;DHT22;56729;52.036;5.332;2022-07-23T05:15:09;13.60;92.30
69533;DHT22;56729;52.036;5.332;2022-07-23T05:16:11;13.60;92.30
69533;DHT22;56729;52.036;5.332;2022-07-23T05:17:13;13.60;92.30
69533;DHT22;56729;52.036;5.332;2022-07-23T05:18:16;13.60;92.40
69533;DHT22;56729;52.036;5.332;2022-07-23T05:19:18;13.60;92.40
69533;DHT22;56729;52.036;5.332;2022-07-23T05:20:25;13.60;92.40
69533;DHT22;56729;52.036;5.332;2022-07-23T05:21:27;13.70;92.50
69533;DHT22;56729;52.036;5.332;2022-07-23T05:22:29;13.70;92.50
69533;DHT22;56729;52.036;5.332;2022-07-23T05:23:31;13.70;92.60
69533;DHT22;56729;52.036;5.332;2022-07-23T05:24:33;13.70;92.60
69533;DHT22;56729;52.036;5.332;2022-07-23T05:25:37;13.70;92.60
69533;DHT22;56729;52.036;5.332;2022-07-23T05:26:39;13.70;92.60
69533;DHT22;56729;52.036;5.332;2022-07-23T05:27:41;13.70;92.70
69533;DHT22;56729;52.036;5.332;2022-07-23T05:28:43;13.70;92.70
69533;DHT22;56729;52.036;5.332;2022-07-23T05:29:51;13.80;92.70
69533;DHT22;56729;52.036;5.332;2022-07-23T05:30:54;13.80;92.70
69533;DHT22;56729;52.036;5.332;2022-07-23T05:31:57;13.80;92.80
69533;DHT22;56729;52.036;5.332;2022-07-23T05:32:59;13.80;92.80
69533;DHT22;56729;52.036;5.332;2022-07-23T05:34:01;13.80;92.90
69533;DHT22;56729;52.036;5.332;2022-07-23T05:35:05;13.90;93.00
69533;DHT22;56729;52.036;5.332;2022-07-23T05:36:09;13.90;93.00
69533;DHT22;56729;52.036;5.332;2022-07-23T05:37:18;13.90;93.00
69533;DHT22;56729;52.036;5.332;2022-07-23T05:38:20;13.90;93.00
69533;DHT22;56729;52.036;5.332;2022-07-23T05:39:23;14.00;93.00
69533;DHT22;56729;52.036;5.332;2022-07-23T05:40:25;14.00;93.10
69533;DHT22;56729;52.036;5.332;2022-07-23T05:41:27;14.00;93.10
69533;DHT22;56729;52.036;5.332;2022-07-23T05:42:29;14.00;93.60
69533;DHT22;56729;52.036;5.332;2022-07-23T05:43:31;14.10;93.10
69533;DHT22;56729;52.036;5.332;2022-07-23T05:44:40;14.10;93.20
69533;DHT22;56729;52.036;5.332;2022-07-23T05:45:42;14.10;93.20
69533;DHT22;56729;52.036;5.332;2022-07-23T05:46:44;14.10;93.20
69533;DHT22;56729;52.036;5.332;2022-07-23T05:47:51;14.20;93.30
69533;DHT22;56729;52.036;5.332;2022-07-23T05:49:01;14.20;93.30
69533;DHT22;56729;52.036;5.332;2022-07-23T05:50:22;14.20;93.40
69533;DHT22;56729;52.036;5.332;2022-07-23T05:51:31;14.20;93.40
69533;DHT22;56729;52.036;5.332;2022-07-23T05:52:34;14.20;93.40
69533;DHT22;56729;52.036;5.332;2022-07-23T05:54:14;14.30;93.50
69533;DHT22;56729;52.036;5.332;2022-07-23T05:55:16;14.30;93.50
69533;DHT22;56729;52.036;5.332;2022-07-23T05:56:19;14.30;93.60
69533;DHT22;56729;52.036;5.332;2022-07-23T05:57:20;14.40;93.60
69533;DHT22;56729;52.036;5.332;2022-07-23T05:58:26;14.40;93.60
69533;DHT22;56729;52.036;5.332;2022-07-23T05:59:29;14.50;93.70
69533;DHT22;56729;52.036;5.332;2022-07-23T06:00:31;14.50;93.80
69533;DHT22;56729;52.036;5.332;2022-07-23T06:01:33;14.50;93.80
69533;DHT22;56729;52.036;5.332;2022-07-23T06:02:41;14.60;93.80
69533;DHT22;56729;52.036;5.332;2022-07-23T06:03:44;14.60;93.80
69533;DHT22;56729;52.036;5.332;2022-07-23T06:04:46;14.60;93.90
69533;DHT22;56729;52.036;5.332;2022-07-23T06:06:02;14.70;93.90
69533;DHT22;56729;52.036;5.332;2022-07-23T06:07:04;14.70;93.90
69533;DHT22;56729;52.036;5.332;2022-07-23T06:08:06;14.70;93.90
69533;DHT22;56729;52.036;5.332;2022-07-23T06:09:08;14.80;94.00
69533;DHT22;56729;52.036;5.332;2022-07-23T06:10:10;14.80;94.00
69533;DHT22;56729;52.036;5.332;2022-07-23T06:11:14;14.80;94.00
69533;DHT22;56729;52.036;5.332;2022-07-23T06:12:17;14.90;94.10
69533;DHT22;56729;52.036;5.332;2022-07-23T06:13:20;14.90;94.00
69533;DHT22;56729;52.036;5.332;2022-07-23T06:14:22;14.90;94.00
69533;DHT22;56729;52.036;5.332;2022-07-23T06:15:29;15.00;94.00
69533;DHT22;56729;52.036;5.332;2022-07-23T06:16:32;15.00;94.00
69533;DHT22;56729;52.036;5.332;2022-07-23T06:17:38;15.00;94.00
69533;DHT22;56729;52.036;5.332;2022-07-23T06:18:43;15.10;94.00
69533;DHT22;56729;52.036;5.332;2022-07-23T06:19:45;15.10;93.90
69533;DHT22;56729;52.036;5.332;2022-07-23T06:20:47;15.10;93.80
69533;DHT22;56729;52.036;5.332;2022-07-23T06:21:52;15.20;93.80
69533;DHT22;56729;52.036;5.332;2022-07-23T06:22:54;15.20;93.70
69533;DHT22;56729;52.036;5.332;2022-07-23T06:23:56;15.20;93.60
69533;DHT22;56729;52.036;5.332;2022-07-23T06:24:58;15.30;93.60
69533;DHT22;56729;52.036;5.332;2022-07-23T06:26:00;15.30;93.60
69533;DHT22;56729;52.036;5.332;2022-07-23T06:27:04;15.30;93.60
69533;DHT22;56729;52.036;5.332;2022-07-23T06:28:06;15.40;93.60
69533;DHT22;56729;52.036;5.332;2022-07-23T06:29:11;15.40;93.60
69533;DHT22;56729;52.036;5.332;2022-07-23T06:30:13;15.40;93.40
69533;DHT22;56729;52.036;5.332;2022-07-23T06:31:19;15.50;93.40
69533;DHT22;56729;52.036;5.332;2022-07-23T06:32:21;15.50;93.30
69533;DHT22;56729;52.036;5.332;2022-07-23T06:33:23;15.50;93.40
69533;DHT22;56729;52.036;5.332;2022-07-23T06:34:25;15.60;93.20
69533;DHT22;56729;52.036;5.332;2022-07-23T06:35:29;15.60;93.10
69533;DHT22;56729;52.036;5.332;2022-07-23T06:36:32;15.60;92.80
69533;DHT22;56729;52.036;5.332;2022-07-23T06:37:34;15.70;92.90
69533;DHT22;56729;52.036;5.332;2022-07-23T06:38:36;15.70;92.90